createdAt,value
2023-05-21T00:04:25.897Z,99875.20
2023-05-21T00:07:28.170Z,99875.75
2023-05-21T00:10:30.242Z,99881.47
2023-05-21T00:13:32.407Z,99883.42
2023-05-21T00:16:34.568Z,99886.98
2023-05-21T00:19:36.851Z,99886.61
2023-05-21T00:22:40.419Z,99885.23
2023-05-21T00:25:42.426Z,99884.27
2023-05-21T00:28:44.361Z,99890.74
2023-05-21T00:31:46.407Z,99889.09
2023-05-21T00:34:48.614Z,99887.71
2023-05-21T00:41:51.327Z,99879.52
2023-05-21T00:44:54.651Z,99878.64
2023-05-21T00:47:56.831Z,99879.58
2023-05-21T00:50:59.395Z,99877.62
2023-05-21T00:54:01.924Z,99885.90
2023-05-21T00:57:04.742Z,99884.03
2023-05-21T01:00:09.153Z,99883.71
2023-05-21T01:03:13.218Z,99886.42
2023-05-21T01:06:16.412Z,99883.48
2023-05-21T01:09:18.749Z,99883.74
2023-05-21T01:12:23.223Z,99880.54
2023-05-21T01:15:26.236Z,99882.22
2023-05-21T01:18:30.097Z,99876.98
2023-05-21T01:21:37.729Z,99872.00
2023-05-21T01:24:40.178Z,99871.34
2023-05-21T01:27:42.154Z,99864.38
2023-05-21T01:30:45.116Z,99861.62
2023-05-21T01:33:53.035Z,99857.92
2023-05-21T01:37:09.141Z,99856.77
2023-05-21T01:43:58.098Z,99857.06
2023-05-21T01:47:03.513Z,99859.40
2023-05-21T01:50:06.915Z,99861.10
2023-05-21T01:53:09.119Z,99858.23
2023-05-21T01:56:11.804Z,99861.77
2023-05-21T01:59:14.172Z,99864.14
2023-05-21T02:04:26.914Z,99865.61
2023-05-21T02:07:29.513Z,99868.41
2023-05-21T02:10:31.899Z,99857.40
2023-05-21T02:13:34.105Z,99859.45
2023-05-21T02:16:38.629Z,99860.39
2023-05-21T02:19:42.175Z,99861.53
2023-05-21T02:22:46.759Z,99861.27
2023-05-21T02:25:49.006Z,99861.29
2023-05-21T02:28:53.242Z,99860.38
2023-05-21T02:31:56.003Z,99865.59
2023-05-21T02:34:59.265Z,99862.20
2023-05-21T02:38:03.696Z,99864.11
2023-05-21T02:41:05.948Z,99863.34
2023-05-21T02:44:08.234Z,99861.36
2023-05-21T02:47:10.823Z,99858.72
2023-05-21T02:50:14.261Z,99855.92
2023-05-21T02:53:20.397Z,99855.98
2023-05-21T02:56:22.625Z,99853.92
2023-05-21T02:59:25.065Z,99858.54
2023-05-21T03:02:27.329Z,99860.14
2023-05-21T03:05:30.104Z,99854.84
2023-05-21T03:08:32.459Z,99858.74
2023-05-21T03:11:34.892Z,99865.45
2023-05-21T03:14:37.418Z,99866.09
2023-05-21T03:17:39.697Z,99870.22
2023-05-21T03:20:44.627Z,99867.07
2023-05-21T03:23:46.733Z,99868.86
2023-05-21T03:26:49.834Z,99866.72
2023-05-21T03:29:52.263Z,99870.88
2023-05-21T03:32:54.449Z,99873.55
2023-05-21T03:35:56.550Z,99874.94
2023-05-21T03:38:59.323Z,99873.90
2023-05-21T03:42:01.691Z,99876.70
2023-05-21T03:45:15.401Z,99875.61
2023-05-21T03:48:43.838Z,99870.38
2023-05-21T03:51:47.824Z,99874.50
2023-05-21T03:54:51.741Z,99870.54
2023-05-21T03:57:54.100Z,99876.48
2023-05-21T04:04:45.069Z,99877.36
2023-05-21T04:07:48.271Z,99870.41
2023-05-21T04:10:50.591Z,99877.84
2023-05-21T04:13:52.805Z,99880.88
2023-05-21T04:16:54.966Z,99883.06
2023-05-21T04:19:57.022Z,99877.96
2023-05-21T04:22:59.035Z,99877.15
2023-05-21T04:26:01.446Z,99877.22
2023-05-21T04:29:04.542Z,99873.31
2023-05-21T04:32:07.423Z,99866.61
2023-05-21T04:35:10.211Z,99862.61
2023-05-21T04:38:13.639Z,99861.72
2023-05-21T04:41:18.461Z,99865.53
2023-05-21T04:44:20.835Z,99860.23
2023-05-21T04:47:22.948Z,99859.41
2023-05-21T04:50:25.371Z,99862.73
2023-05-21T04:53:28.869Z,99865.31
2023-05-21T04:56:31.547Z,99859.20
2023-05-21T04:59:35.096Z,99856.15
2023-05-21T05:02:37.095Z,99848.07
2023-05-21T05:05:39.886Z,99846.55
2023-05-21T05:08:41.888Z,99844.85
2023-05-21T05:11:43.886Z,99845.02
2023-05-21T05:14:46.516Z,99850.13
2023-05-21T05:17:49.917Z,99851.44
2023-05-21T05:20:51.987Z,99852.32
2023-05-21T05:23:54.567Z,99853.01
2023-05-21T05:26:59.604Z,99853.27
2023-05-21T05:30:02.082Z,99852.11
2023-05-21T05:33:06.687Z,99853.63
2023-05-21T05:36:09.040Z,99857.80
2023-05-21T05:39:12.179Z,99861.06
2023-05-21T05:42:15.043Z,99862.64
2023-05-21T05:45:17.747Z,99857.70
2023-05-21T05:48:20.087Z,99855.76
2023-05-21T05:51:22.309Z,99858.25
2023-05-21T05:54:24.642Z,99860.72
2023-05-21T05:57:27.330Z,99853.92
2023-05-21T06:04:30.365Z,99846.80
2023-05-21T06:07:33.695Z,99847.50
2023-05-21T06:10:37.644Z,99848.02
2023-05-21T06:13:39.870Z,99849.23
2023-05-21T06:16:42.571Z,99850.83
2023-05-21T06:19:46.168Z,99852.70
2023-05-21T06:22:48.601Z,99856.96
2023-05-21T06:25:51.416Z,99860.05
2023-05-21T06:28:54.842Z,99859.57
2023-05-21T06:31:57.241Z,99855.02
2023-05-21T06:34:59.756Z,99846.75
2023-05-21T06:38:02.356Z,99841.58
2023-05-21T06:41:04.825Z,99843.17
2023-05-21T06:44:21.012Z,99837.39
2023-05-21T06:47:46.169Z,99838.63
2023-05-21T06:50:48.653Z,99831.26
2023-05-21T06:53:51.633Z,99829.75
2023-05-21T06:56:53.864Z,99824.96
2023-05-21T06:59:56.203Z,99821.92
2023-05-21T07:02:58.628Z,99820.60
2023-05-21T07:06:01.702Z,99822.81
2023-05-21T07:09:06.089Z,99814.88
2023-05-21T07:12:08.411Z,99813.63
2023-05-21T07:15:11.452Z,99811.73
2023-05-21T07:18:14.754Z,99811.40
2023-05-21T07:21:17.371Z,99809.27
2023-05-21T07:24:21.767Z,99807.97
2023-05-21T07:27:25.822Z,99798.91
2023-05-21T07:43:37.638Z,99783.83
2023-05-21T07:46:40.339Z,99780.14
2023-05-21T07:49:43.467Z,99779.48
2023-05-21T07:52:46.113Z,99781.17
2023-05-21T07:55:48.969Z,99778.98
2023-05-21T07:58:54.265Z,99779.55
2023-05-21T08:01:57.064Z,99785.59
2023-05-21T08:04:59.615Z,99785.92
2023-05-21T08:08:02.026Z,99785.30
2023-05-21T08:11:04.924Z,99786.52
2023-05-21T08:14:07.498Z,99784.80
2023-05-21T08:17:14.007Z,99781.51
2023-05-21T08:20:16.452Z,99775.75
2023-05-21T08:23:20.307Z,99765.88
2023-05-21T08:26:25.997Z,99766.50
2023-05-21T10:04:48.800Z,99714.44
2023-05-21T10:07:53.839Z,99715.83
2023-05-21T10:10:57.437Z,99715.67
2023-05-21T10:14:08.593Z,99712.63
2023-05-21T10:17:12.710Z,99713.36
2023-05-21T10:20:16.293Z,99709.63
2023-05-21T10:23:20.241Z,99711.49
2023-05-21T10:26:24.483Z,99704.20
2023-05-21T10:29:27.191Z,99701.37
2023-05-21T10:32:30.089Z,99708.45
2023-05-21T10:35:33.896Z,99701.44
2023-05-21T10:38:38.563Z,99700.82
2023-05-21T10:42:21.074Z,99705.29
2023-05-21T10:45:59.749Z,99703.75
2023-05-21T10:49:17.071Z,99710.41
2023-05-21T10:52:19.140Z,99710.60
2023-05-21T10:55:36.749Z,99709.90
2023-05-21T10:58:57.243Z,99700.73
2023-05-21T11:01:59.897Z,99704.92
2023-05-21T11:05:03.830Z,99705.67
2023-05-21T11:08:20.688Z,99703.52
2023-05-21T11:11:42.727Z,99696.92
2023-05-21T11:15:03.785Z,99702.47
2023-05-21T11:18:09.037Z,99701.82
2023-05-21T11:21:17.550Z,99707.14
2023-05-21T11:24:20.350Z,99711.63
2023-05-21T11:27:37.802Z,99709.40
2023-05-21T11:30:42.191Z,99702.48
2023-05-21T11:33:47.644Z,99702.54
2023-05-21T11:37:09.680Z,99705.35
2023-05-21T11:40:26.826Z,99703.42
2023-05-21T11:43:29.240Z,99697.08
2023-05-21T11:46:31.471Z,99698.29
2023-05-21T11:49:34.174Z,99697.34
2023-05-21T11:52:37.703Z,99694.38
2023-05-21T11:55:42.875Z,99688.52
2023-05-21T11:58:46.172Z,99689.73
2023-05-21T12:01:48.379Z,99695.65
2023-05-21T12:04:51.180Z,99696.54
2023-05-21T12:07:55.248Z,99695.44
2023-05-21T12:11:01.505Z,99684.96
2023-05-21T12:14:13.597Z,99690.70
2023-05-21T12:17:17.932Z,99689.16
2023-05-21T12:20:20.444Z,99691.71
2023-05-21T12:23:25.881Z,99690.38
2023-05-21T12:26:29.156Z,99689.66
2023-05-21T12:29:32.201Z,99691.66
2023-05-21T12:32:34.372Z,99686.06
2023-05-21T12:35:36.998Z,99687.63
2023-05-21T12:38:39.128Z,99682.91
2023-05-21T12:41:41.639Z,99683.81
2023-05-21T12:44:46.277Z,99686.61
2023-05-21T12:47:50.222Z,99692.14
2023-05-21T12:50:52.480Z,99688.44
2023-05-21T12:53:54.416Z,99682.42
2023-05-21T12:56:56.545Z,99686.94
2023-05-21T13:00:00.523Z,99681.34
2023-05-21T13:03:04.121Z,99676.17
2023-05-21T13:06:07.798Z,99684.44
2023-05-21T13:09:11.308Z,99682.83
2023-05-21T13:12:13.152Z,99682.70
2023-05-21T13:15:15.618Z,99680.58
2023-05-21T13:18:17.658Z,99679.25
2023-05-21T13:21:19.426Z,99675.02
2023-05-21T13:24:21.279Z,99667.88
2023-05-21T13:27:23.186Z,99668.34
2023-05-21T13:30:25.118Z,99669.13
2023-05-21T13:33:27.118Z,99667.85
2023-05-21T13:36:28.981Z,99664.20
2023-05-21T13:39:30.866Z,99665.88
2023-05-21T13:42:33.679Z,99661.40
2023-05-21T13:45:35.700Z,99668.95
2023-05-21T13:48:37.494Z,99668.88
2023-05-21T13:51:39.528Z,99667.96
2023-05-21T13:54:42.384Z,99667.64
2023-05-21T14:04:45.585Z,99661.25
2023-05-21T14:07:48.090Z,99661.45
2023-05-21T14:10:50.769Z,99658.55
2023-05-21T14:13:53.138Z,99653.67
2023-05-21T14:16:55.551Z,99651.27
2023-05-21T14:19:57.663Z,99651.73
2023-05-21T14:22:59.848Z,99645.82
2023-05-21T14:26:02.010Z,99645.42
2023-05-21T14:29:04.387Z,99643.66
2023-05-21T14:32:07.315Z,99643.35
2023-05-21T14:35:10.764Z,99643.60
2023-05-21T14:38:13.050Z,99643.41
2023-05-21T14:41:15.106Z,99640.30
2023-05-21T14:44:17.331Z,99635.77
2023-05-21T14:47:19.453Z,99641.84
2023-05-21T14:50:21.512Z,99638.58
2023-05-21T14:53:23.503Z,99638.59
2023-05-21T14:56:27.346Z,99640.38
2023-05-21T14:59:29.268Z,99636.62
2023-05-21T15:02:31.410Z,99637.60
2023-05-21T15:05:33.814Z,99640.23
2023-05-21T15:08:36.073Z,99639.36
2023-05-21T15:11:39.467Z,99640.16
2023-05-21T15:14:41.543Z,99633.15
2023-05-21T15:17:43.975Z,99632.27
2023-05-21T15:20:46.188Z,99634.01
2023-05-21T15:23:48.636Z,99630.60
2023-05-21T15:26:50.870Z,99629.48
2023-05-21T15:29:53.259Z,99634.32
2023-05-21T15:32:55.791Z,99634.16
2023-05-21T15:35:58.033Z,99631.69
2023-05-21T15:52:28.319Z,99622.27
2023-05-21T15:55:34.636Z,99626.98
2023-05-21T15:58:37.337Z,99627.57
2023-05-21T16:01:39.835Z,99626.92
2023-05-21T16:16:46.448Z,99624.50
2023-05-21T16:19:49.574Z,99625.62
2023-05-21T16:22:51.720Z,99628.50
2023-05-21T16:25:53.873Z,99632.34
2023-05-21T16:28:55.963Z,99631.38
2023-05-21T16:31:58.083Z,99629.01
2023-05-21T16:35:00.328Z,99630.48
2023-05-21T16:38:02.475Z,99628.54
2023-05-21T16:41:04.654Z,99628.53
2023-05-21T16:58:13.485Z,99619.70
2023-05-21T17:01:16.186Z,99619.80
2023-05-21T17:04:18.233Z,99617.73
2023-05-21T17:07:20.332Z,99614.57
2023-05-21T17:10:24.928Z,99610.72
2023-05-21T17:13:27.126Z,99615.59
2023-05-21T17:16:29.278Z,99613.95
2023-05-21T17:19:31.361Z,99611.99
2023-05-21T17:22:33.433Z,99616.80
2023-05-21T17:25:35.671Z,99613.73
2023-05-21T17:28:38.190Z,99611.49
2023-05-21T17:31:40.858Z,99613.52
2023-05-21T17:34:43.649Z,99612.77
2023-05-21T17:37:46.810Z,99611.39
2023-05-21T17:40:50.314Z,99612.06
2023-05-21T17:43:52.643Z,99613.20
2023-05-21T17:46:56.105Z,99613.27
2023-05-21T17:49:58.404Z,99612.55
2023-05-21T17:53:00.544Z,99613.45
2023-05-21T17:56:03.155Z,99615.52
2023-05-21T17:59:06.406Z,99618.45
2023-05-21T18:04:26.416Z,99619.08
2023-05-21T18:07:29.543Z,99623.78
2023-05-21T18:10:31.895Z,99625.00
2023-05-21T18:13:34.270Z,99630.13
2023-05-21T18:16:36.457Z,99632.48
2023-05-21T18:19:38.590Z,99632.20
2023-05-21T18:22:40.770Z,99631.07
2023-05-21T18:25:42.931Z,99634.58
2023-05-21T18:28:45.213Z,99628.80
2023-05-21T18:31:47.730Z,99627.80
2023-05-21T18:34:50.199Z,99624.77
2023-05-21T18:37:52.323Z,99623.24
2023-05-21T18:40:54.396Z,99624.05
2023-05-21T18:43:56.458Z,99624.85
2023-05-21T18:46:58.969Z,99621.80
2023-05-21T18:50:01.485Z,99622.25
2023-05-21T18:53:03.487Z,99619.87
2023-05-21T18:56:07.193Z,99618.58
2023-05-21T18:59:09.500Z,99617.05
2023-05-21T22:04:27.569Z,99588.75
2023-05-21T22:07:33.302Z,99593.53
2023-05-21T22:13:56.607Z,99588.32
2023-05-21T22:16:58.917Z,99587.75
2023-05-21T22:20:01.768Z,99582.10
2023-05-21T22:23:04.336Z,99582.81
2023-05-21T22:26:07.815Z,99584.64
2023-05-21T22:29:10.206Z,99588.00
2023-05-21T22:32:13.542Z,99590.88
2023-05-21T22:35:15.983Z,99594.31
2023-05-21T22:38:18.563Z,99588.16
2023-05-21T22:41:21.234Z,99589.09
2023-05-21T22:44:23.651Z,99592.95
2023-05-21T22:47:27.043Z,99592.42
2023-05-21T22:50:29.656Z,99584.92
2023-05-21T22:53:33.926Z,99584.65
2023-05-21T22:56:36.073Z,99580.23
2023-05-21T22:59:38.251Z,99580.37
2023-05-21T23:02:40.925Z,99580.23
2023-05-21T23:05:43.189Z,99578.42
2023-05-21T23:08:45.753Z,99581.98
2023-05-21T23:11:47.972Z,99576.08
2023-05-21T23:14:50.214Z,99577.16
2023-05-21T23:17:52.637Z,99573.85
2023-05-21T23:20:54.881Z,99572.37
2023-05-21T23:23:57.245Z,99571.07
2023-05-21T23:27:03.185Z,99574.77
2023-05-21T23:30:06.484Z,99571.91
2023-05-21T23:33:09.033Z,99570.17
2023-05-21T23:36:11.300Z,99566.38
2023-05-21T23:39:13.711Z,99566.52
2023-05-21T23:42:16.761Z,99562.80
2023-05-21T23:45:19.053Z,99558.52
2023-05-21T23:48:21.463Z,99561.61
2023-05-21T23:51:23.694Z,99559.55
2023-05-21T23:54:25.960Z,99560.34
2023-05-21T23:57:28.004Z,99561.69
